createdAt,value
2019-04-03T00:01:14.908Z,98827.98
2019-04-03T00:03:45.605Z,98829.36
2019-04-03T00:06:18.465Z,98817.10
2019-04-03T00:08:51.457Z,98820.10
2019-04-03T00:11:24.414Z,98819.17
2019-04-03T00:13:57.534Z,98817.73
2019-04-03T00:16:30.486Z,98814.08
2019-04-03T00:19:03.507Z,98807.27
2019-04-03T00:21:33.848Z,98802.05
2019-04-03T00:24:05.815Z,98802.52
2019-04-03T00:26:36.603Z,98799.39
2019-04-03T00:29:08.672Z,98795.55
2019-04-03T00:31:39.733Z,98791.17
2019-04-03T00:34:12.618Z,98788.24
2019-04-03T00:36:45.698Z,98777.23
2019-04-03T00:39:18.754Z,98779.80
2019-04-03T00:41:49.702Z,98776.77
2019-04-03T00:44:24.125Z,98777.95
2019-04-03T00:46:55.597Z,98772.56
2019-04-03T00:49:26.735Z,98770.77
2019-04-03T00:51:59.101Z,98776.44
2019-04-03T00:54:31.335Z,98770.70
2019-04-03T00:57:03.648Z,98768.80
2019-04-03T00:59:38.285Z,98770.88
2019-04-03T01:02:11.360Z,98773.96
2019-04-03T01:04:42.755Z,98767.19
2019-04-03T01:07:15.802Z,98773.87
2019-04-03T01:09:48.725Z,98763.79
2019-04-03T01:12:21.925Z,98754.83
2019-04-03T01:14:54.788Z,98753.27
2019-04-03T01:17:27.790Z,98750.55
2019-04-03T01:20:00.888Z,98743.84
2019-04-03T01:22:31.795Z,98742.94
2019-04-03T01:25:05.220Z,98738.42
2019-04-03T01:27:36.948Z,98728.60
2019-04-03T01:30:09.924Z,98730.70
2019-04-03T01:32:42.867Z,98727.13
2019-04-03T01:35:17.423Z,98732.41
2019-04-03T01:37:49.918Z,98729.13
2019-04-03T01:40:21.875Z,98732.12
2019-04-03T01:42:54.856Z,98728.89
2019-04-03T01:45:28.041Z,98720.55
2019-04-03T01:47:58.883Z,98708.95
2019-04-03T01:50:30.963Z,98704.73
2019-04-03T01:53:03.942Z,98701.36
2019-04-03T01:55:36.949Z,98704.82
2019-04-03T01:58:08.085Z,98702.89
2019-04-03T02:00:39.046Z,98698.80
2019-04-03T02:03:10.817Z,98699.96
2019-04-03T02:05:43.982Z,98699.96
2019-04-03T02:08:16.050Z,98691.89
2019-04-03T02:10:49.290Z,98688.70
2019-04-03T02:13:21.868Z,98684.80
2019-04-03T02:15:53.983Z,98677.03
2019-04-03T02:18:27.257Z,98677.77
2019-04-03T02:20:58.176Z,98677.13
2019-04-03T02:23:31.274Z,98679.67
2019-04-03T02:26:04.107Z,98674.91
2019-04-03T02:28:36.416Z,98680.70
2019-04-03T02:31:07.185Z,98673.38
2019-04-03T02:33:39.054Z,98681.39
2019-04-03T02:36:12.496Z,98684.41
2019-04-03T02:38:42.332Z,98680.52
2019-04-03T02:41:15.328Z,98682.07
2019-04-03T02:43:48.401Z,98676.77
2019-04-03T02:46:19.274Z,98681.53
2019-04-03T02:48:51.392Z,98677.97
2019-04-03T02:51:21.793Z,98683.25
2019-04-03T02:53:54.278Z,98681.25
2019-04-03T02:56:27.319Z,98670.81
2019-04-03T02:59:00.317Z,98671.27
2019-04-03T03:01:31.279Z,98663.16
2019-04-03T03:04:03.370Z,98668.80
2019-04-03T03:06:33.796Z,98663.50
2019-04-03T03:09:05.316Z,98661.11
2019-04-03T03:11:36.364Z,98654.88
2019-04-03T03:14:09.624Z,98657.41
2019-04-03T03:16:42.743Z,98650.59
2019-04-03T03:19:15.102Z,98648.96
2019-04-03T03:21:46.227Z,98649.75
2019-04-03T03:24:19.826Z,98651.60
2019-04-03T03:26:51.425Z,98651.84
2019-04-03T03:29:27.003Z,98645.83
2019-04-03T03:32:08.526Z,98645.37
2019-04-03T03:34:49.504Z,98650.61
2019-04-03T03:37:05.776Z,98645.09
2019-04-03T03:39:36.368Z,98642.89
2019-04-03T03:42:09.528Z,98643.11
2019-04-03T03:44:45.631Z,98641.40
2019-04-03T03:47:17.674Z,98641.38
2019-04-03T03:49:50.873Z,98642.77
2019-04-03T03:52:21.672Z,98640.94
2019-04-03T03:54:54.798Z,98642.86
2019-04-03T03:57:25.689Z,98639.45
2019-04-03T03:59:57.916Z,98629.03
2019-04-03T04:02:29.674Z,98632.45
2019-04-03T04:05:00.717Z,98635.20
2019-04-03T04:07:35.734Z,98633.12
2019-04-03T04:10:06.407Z,98627.81
2019-04-03T04:12:41.278Z,98625.62
2019-04-03T04:15:11.908Z,98626.77
2019-04-03T04:17:43.800Z,98622.09
2019-04-03T04:20:14.657Z,98629.75
2019-04-03T04:22:50.453Z,98628.09
2019-04-03T04:25:19.693Z,98629.75
2019-04-03T04:27:52.149Z,98628.89
2019-04-03T04:30:24.726Z,98634.56
2019-04-03T04:32:57.786Z,98630.89
2019-04-03T04:35:30.640Z,98635.84
2019-04-03T04:38:03.984Z,98642.64
2019-04-03T04:40:36.272Z,98638.02
2019-04-03T04:43:08.213Z,98638.13
2019-04-03T04:45:42.193Z,98630.66
2019-04-03T04:48:15.616Z,98636.91
2019-04-03T04:50:45.754Z,98638.31
2019-04-03T04:53:16.793Z,98638.23
2019-04-03T04:55:50.494Z,98637.88
2019-04-03T04:58:21.910Z,98647.27
2019-04-03T05:00:54.837Z,98648.95
2019-04-03T05:03:26.870Z,98645.56
2019-04-03T05:05:58.601Z,98645.54
2019-04-03T05:08:32.943Z,98651.80
2019-04-03T05:11:03.844Z,98646.05
2019-04-03T05:13:34.211Z,98645.72
2019-04-03T05:16:06.979Z,98647.13
2019-04-03T05:18:39.857Z,98652.87
2019-04-03T05:21:12.088Z,98659.02
2019-04-03T05:23:42.997Z,98657.49
2019-04-03T05:26:15.935Z,98653.58
2019-04-03T05:28:55.626Z,98657.74
2019-04-03T05:31:19.143Z,98665.55
2019-04-03T05:33:52.074Z,98665.08
2019-04-03T05:36:25.013Z,98665.62
2019-04-03T05:38:56.274Z,98667.52
2019-04-03T05:41:28.697Z,98668.86
2019-04-03T05:44:02.360Z,98669.51
2019-04-03T05:46:33.462Z,98664.77
2019-04-03T05:49:04.060Z,98660.67
2019-04-03T05:51:38.720Z,98662.03
2019-04-03T05:54:09.994Z,98670.72
2019-04-03T05:56:42.982Z,98665.84
2019-04-03T05:59:14.053Z,98671.32
2019-04-03T06:01:46.939Z,98663.89
2019-04-03T06:04:19.481Z,98663.48
2019-04-03T06:06:52.365Z,98659.88
2019-04-03T06:09:25.179Z,98666.03
2019-04-03T06:11:57.334Z,98654.75
2019-04-03T06:14:28.182Z,98664.19
2019-04-03T06:16:59.284Z,98664.70
2019-04-03T06:19:32.554Z,98656.53
2019-04-03T06:22:04.186Z,98660.52
2019-04-03T06:24:37.285Z,98668.17
2019-04-03T06:27:10.595Z,98656.20
2019-04-03T06:29:43.151Z,98666.79
2019-04-03T06:32:14.260Z,98659.88
2019-04-03T06:34:47.168Z,98665.88
2019-04-03T06:37:22.273Z,98663.86
2019-04-03T06:39:55.296Z,98663.96
2019-04-03T06:42:31.559Z,98670.45
2019-04-03T06:45:06.945Z,98675.70
2019-04-03T06:47:37.331Z,98675.70
2019-04-03T06:50:12.563Z,98677.40
2019-04-03T06:52:43.267Z,98674.75
2019-04-03T06:55:16.361Z,98679.52
2019-04-03T06:57:47.552Z,98680.27
2019-04-03T07:00:19.327Z,98673.34
2019-04-03T07:02:50.386Z,98670.72
2019-04-03T07:05:22.360Z,98669.67
2019-04-03T07:07:55.370Z,98666.07
2019-04-03T07:10:28.531Z,98664.17
2019-04-03T07:13:00.349Z,98668.53
2019-04-03T07:15:31.544Z,98668.52
2019-04-03T07:18:05.861Z,98680.94
2019-04-03T07:20:37.504Z,98679.32
2019-04-03T07:23:09.444Z,98675.00
2019-04-03T07:25:39.936Z,98683.21
2019-04-03T07:28:10.323Z,98680.51
2019-04-03T07:30:42.605Z,98674.39
2019-04-03T07:33:14.481Z,98680.73
2019-04-03T07:35:45.706Z,98673.97
2019-04-03T07:38:16.464Z,98674.91
2019-04-03T07:40:50.949Z,98672.21
2019-04-03T07:43:21.576Z,98676.88
2019-04-03T07:45:55.994Z,98673.03
2019-04-03T07:48:28.629Z,98677.47
2019-04-03T07:50:59.777Z,98684.80
2019-04-03T07:53:31.524Z,98683.37
2019-04-03T07:56:04.579Z,98692.60
2019-04-03T07:58:36.767Z,98676.90
2019-04-03T08:01:09.568Z,98694.69
2019-04-03T08:03:39.958Z,98684.95
2019-04-03T08:06:12.720Z,98688.56
2019-04-03T08:08:45.620Z,98695.36
2019-04-03T08:11:16.663Z,98695.22
2019-04-03T08:13:48.654Z,98687.66
2019-04-03T08:16:21.778Z,98691.14
2019-04-03T08:18:53.772Z,98695.55
2019-04-03T08:21:25.139Z,98696.77
2019-04-03T08:23:57.748Z,98692.23
2019-04-03T08:26:31.436Z,98690.70
2019-04-03T08:29:03.677Z,98690.50
2019-04-03T08:31:34.295Z,98694.51
2019-04-03T08:34:15.845Z,98690.87
2019-04-03T08:36:39.934Z,98695.89
2019-04-03T08:39:10.777Z,98689.56
2019-04-03T08:41:43.143Z,98691.04
2019-04-03T08:44:18.139Z,98690.64
2019-04-03T08:46:51.010Z,98690.44
2019-04-03T08:49:25.685Z,98686.96
2019-04-03T08:51:57.758Z,98687.56
2019-04-03T08:54:30.882Z,98684.59
2019-04-03T08:57:03.888Z,98683.44
2019-04-03T08:59:34.266Z,98682.83
2019-04-03T09:02:08.216Z,98689.30
2019-04-03T09:04:41.447Z,98683.20
2019-04-03T09:07:12.846Z,98680.34
2019-04-03T09:09:45.983Z,98682.14
2019-04-03T09:12:18.983Z,98668.56
2019-04-03T09:14:52.040Z,98673.82
2019-04-03T09:17:24.975Z,98681.17
2019-04-03T09:19:58.352Z,98671.59
2019-04-03T09:22:28.984Z,98669.86
2019-04-03T09:25:01.117Z,98667.99
2019-04-03T09:27:34.148Z,98665.17
2019-04-03T09:30:07.490Z,98666.75
2019-04-03T09:32:40.037Z,98658.11
2019-04-03T09:35:13.689Z,98660.33
2019-04-03T09:37:46.708Z,98661.34
2019-04-03T09:40:19.205Z,98653.37
2019-04-03T09:42:52.081Z,98660.36
2019-04-03T09:45:26.077Z,98656.69
2019-04-03T09:47:58.248Z,98646.75
2019-04-03T09:50:30.206Z,98639.50
2019-04-03T09:53:02.474Z,98633.39
2019-04-03T09:55:36.946Z,98644.91
2019-04-03T09:58:06.134Z,98638.45
2019-04-03T10:00:37.141Z,98644.34
2019-04-03T10:03:10.763Z,98638.25
2019-04-03T10:05:43.209Z,98625.88
2019-04-03T10:08:15.096Z,98623.01
2019-04-03T10:10:47.138Z,98629.86
2019-04-03T10:13:19.221Z,98622.97
2019-04-03T10:15:50.458Z,98614.16
2019-04-03T10:18:22.569Z,98618.67
2019-04-03T10:20:55.332Z,98625.52
2019-04-03T10:23:29.162Z,98618.81
2019-04-03T10:26:01.282Z,98608.58
2019-04-03T10:28:33.359Z,98609.52
2019-04-03T10:31:04.212Z,98602.70
2019-04-03T10:33:34.589Z,98600.39
2019-04-03T10:36:05.820Z,98590.94
2019-04-03T10:38:37.352Z,98591.77
2019-04-03T10:41:11.109Z,98580.55
2019-04-03T10:43:42.149Z,98587.58
2019-04-03T10:46:13.454Z,98575.22
2019-04-03T10:48:46.396Z,98576.86
2019-04-03T10:51:19.374Z,98580.10
2019-04-03T10:53:52.481Z,98565.34
2019-04-03T10:56:23.544Z,98559.17
2019-04-03T10:59:09.158Z,98557.15
2019-04-03T11:01:29.890Z,98551.75
2019-04-03T11:04:01.533Z,98543.52
2019-04-03T11:06:36.551Z,98546.31
2019-04-03T11:09:10.382Z,98533.79
2019-04-03T11:11:44.126Z,98535.26
2019-04-03T11:14:16.467Z,98533.38
2019-04-03T11:16:49.528Z,98530.95
2019-04-03T11:19:22.546Z,98519.91
2019-04-03T11:21:56.019Z,98512.84
2019-04-03T11:24:29.258Z,98516.09
2019-04-03T11:27:02.563Z,98517.98
2019-04-03T11:29:33.793Z,98509.31
2019-04-03T11:32:04.528Z,98511.06
2019-04-03T11:34:37.917Z,98499.83
2019-04-03T11:37:09.595Z,98492.83
2019-04-03T11:39:40.798Z,98502.51
2019-04-03T11:42:23.192Z,98499.52
2019-04-03T11:44:46.925Z,98485.17
2019-04-03T11:47:18.973Z,98502.52
2019-04-03T11:49:51.878Z,98493.74
2019-04-03T11:52:21.788Z,98505.59
2019-04-03T11:54:54.851Z,98494.63
2019-04-03T11:57:27.193Z,98500.77
2019-04-03T11:59:59.044Z,98482.44
2019-04-03T12:02:31.567Z,98484.03
2019-04-03T12:05:03.754Z,98484.45
2019-04-03T12:07:34.181Z,98481.19
2019-04-03T12:10:06.063Z,98474.73
2019-04-03T12:12:37.671Z,98473.72
2019-04-03T12:15:10.068Z,98475.77
2019-04-03T12:17:40.999Z,98469.27
2019-04-03T12:20:15.903Z,98450.91
2019-04-03T12:22:46.656Z,98455.58
2019-04-03T12:25:19.838Z,98460.52
2019-04-03T12:27:52.854Z,98451.98
2019-04-03T12:30:26.663Z,98453.63
2019-04-03T12:32:58.906Z,98460.55
2019-04-03T12:35:31.978Z,98456.34
2019-04-03T12:38:03.755Z,98455.73
2019-04-03T12:40:34.147Z,98457.00
2019-04-03T12:43:05.383Z,98452.96
2019-04-03T12:45:36.853Z,98455.30
2019-04-03T12:48:09.050Z,98448.42
2019-04-03T12:50:40.194Z,98439.78
2019-04-03T12:53:10.835Z,98444.81
2019-04-03T12:55:43.044Z,98434.41
2019-04-03T12:58:14.917Z,98439.94
2019-04-03T13:00:46.602Z,98453.44
2019-04-03T13:03:19.454Z,98430.45
2019-04-03T13:05:51.999Z,98446.65
2019-04-03T13:08:23.448Z,98426.59
2019-04-03T13:10:54.980Z,98413.31
2019-04-03T13:13:28.902Z,98415.66
2019-04-03T13:16:00.972Z,98420.83
2019-04-03T13:18:32.139Z,98419.76
2019-04-03T13:21:04.368Z,98415.25
2019-04-03T13:23:34.963Z,98415.86
2019-04-03T13:26:07.405Z,98408.06
2019-04-03T13:28:40.947Z,98408.79
2019-04-03T13:31:15.043Z,98400.65
2019-04-03T13:33:49.111Z,98400.02
2019-04-03T13:36:24.342Z,98400.25
2019-04-03T13:38:55.462Z,98393.37
2019-04-03T13:41:28.064Z,98402.02
2019-04-03T13:44:01.140Z,98394.45
2019-04-03T13:46:34.466Z,98392.08
2019-04-03T13:49:07.154Z,98390.45
2019-04-03T13:51:40.580Z,98387.24
2019-04-03T13:54:12.122Z,98376.56
2019-04-03T13:56:43.453Z,98375.52
2019-04-03T13:59:16.255Z,98379.14
2019-04-03T14:01:49.243Z,98381.02
2019-04-03T14:04:23.252Z,98372.02
2019-04-03T14:06:55.333Z,98377.11
2019-04-03T14:09:28.271Z,98372.50
2019-04-03T14:12:04.910Z,98371.08
2019-04-03T14:14:33.983Z,98366.56
2019-04-03T14:17:07.243Z,98365.73
2019-04-03T14:19:45.154Z,98367.66
2019-04-03T14:22:13.381Z,98365.20
2019-04-03T14:24:51.162Z,98365.80
2019-04-03T14:27:23.886Z,98364.33
2019-04-03T14:29:52.373Z,98355.91
2019-04-03T14:32:25.373Z,98355.81
2019-04-03T14:35:09.092Z,98355.02
2019-04-03T14:37:33.082Z,98352.78
2019-04-03T14:40:04.635Z,98344.99
2019-04-03T14:42:35.092Z,98354.58
2019-04-03T14:45:08.068Z,98344.64
2019-04-03T14:47:40.739Z,98341.08
2019-04-03T14:50:13.926Z,98334.50
2019-04-03T14:52:47.645Z,98339.36
2019-04-03T14:55:20.721Z,98329.03
2019-04-03T14:57:49.622Z,98326.20
2019-04-03T15:00:27.977Z,98321.63
2019-04-03T15:02:56.969Z,98323.34
2019-04-03T15:05:29.713Z,98318.48
2019-04-03T15:08:00.875Z,98314.80
2019-04-03T15:10:32.247Z,98310.18
2019-04-03T15:13:04.609Z,98310.80
2019-04-03T15:15:34.998Z,98300.06
2019-04-03T15:18:09.338Z,98302.81
2019-04-03T15:20:40.595Z,98304.72
2019-04-03T15:23:12.084Z,98305.78
2019-04-03T15:25:43.713Z,98288.90
2019-04-03T15:28:15.183Z,98289.20
2019-04-03T15:30:47.932Z,98286.14
2019-04-03T15:33:23.025Z,98279.63
2019-04-03T15:35:55.635Z,98270.92
2019-04-03T15:38:31.326Z,98273.38
2019-04-03T15:41:01.682Z,98261.84
2019-04-03T15:43:32.570Z,98275.16
2019-04-03T15:46:04.279Z,98265.45
2019-04-03T15:48:34.697Z,98257.98
2019-04-03T15:51:07.908Z,98262.17
2019-04-03T15:53:40.708Z,98261.27
2019-04-03T15:56:13.045Z,98258.02
2019-04-03T15:58:44.877Z,98257.58
2019-04-03T16:01:17.195Z,98252.97
2019-04-03T16:03:50.562Z,98248.45
2019-04-03T16:06:22.761Z,98248.23
2019-04-03T16:08:55.757Z,98240.16
2019-04-03T16:11:30.247Z,98242.33
2019-04-03T16:14:01.776Z,98240.20
2019-04-03T16:16:34.151Z,98234.36
2019-04-03T16:19:04.963Z,98240.93
2019-04-03T16:21:38.302Z,98242.41
2019-04-03T16:24:13.073Z,98242.23
2019-04-03T16:26:43.917Z,98236.16
2019-04-03T16:29:15.913Z,98229.03
2019-04-03T16:31:47.158Z,98238.63
2019-04-03T16:34:19.981Z,98228.30
2019-04-03T16:36:53.060Z,98220.94
2019-04-03T16:39:26.023Z,98220.81
2019-04-03T16:41:57.319Z,98219.91
2019-04-03T16:44:29.961Z,98215.42
2019-04-03T16:47:00.966Z,98215.34
2019-04-03T16:49:32.564Z,98213.38
2019-04-03T16:52:05.766Z,98213.59
2019-04-03T16:54:39.379Z,98218.33
2019-04-03T16:57:11.873Z,98215.39
2019-04-03T16:59:42.946Z,98226.72
2019-04-03T17:02:16.119Z,98213.85
2019-04-03T17:04:47.152Z,98217.93
2019-04-03T17:07:21.029Z,98222.45
2019-04-03T17:09:54.093Z,98225.44
2019-04-03T17:12:25.772Z,98218.98
2019-04-03T17:14:59.776Z,98217.03
2019-04-03T17:17:32.780Z,98214.89
2019-04-03T17:20:05.611Z,98217.05
2019-04-03T17:22:40.901Z,98222.55
2019-04-03T17:25:12.876Z,98221.66
2019-04-03T17:27:54.091Z,98213.16
2019-04-03T17:30:18.307Z,98222.55
2019-04-03T17:32:50.586Z,98222.14
2019-04-03T17:35:21.422Z,98220.43
2019-04-03T17:37:54.151Z,98222.55
2019-04-03T17:40:25.112Z,98232.02
2019-04-03T17:42:56.164Z,98237.34
2019-04-03T17:45:29.103Z,98246.19
2019-04-03T17:48:00.302Z,98233.75
2019-04-03T17:50:31.328Z,98246.27
2019-04-03T17:53:06.303Z,98249.95
2019-04-03T17:55:38.191Z,98262.36
2019-04-03T17:58:11.384Z,98268.24
2019-04-03T18:00:42.423Z,98268.45
2019-04-03T18:03:15.341Z,98276.08
2019-04-03T18:05:46.369Z,98276.14
2019-04-03T18:08:18.335Z,98278.55
2019-04-03T18:10:50.384Z,98291.64
2019-04-03T18:13:23.202Z,98290.42
2019-04-03T18:15:54.589Z,98295.28
2019-04-03T18:18:25.066Z,98293.98
2019-04-03T18:20:55.771Z,98292.88
2019-04-03T18:23:27.975Z,98289.17
2019-04-03T18:25:59.727Z,98295.87
2019-04-03T18:28:33.916Z,98285.44
2019-04-03T18:31:07.438Z,98285.56
2019-04-03T18:33:38.504Z,98290.39
2019-04-03T18:36:10.444Z,98290.16
2019-04-03T18:38:40.874Z,98287.16
2019-04-03T18:41:11.443Z,98289.78
2019-04-03T18:43:43.407Z,98288.32
2019-04-03T18:46:19.171Z,98292.72
2019-04-03T18:48:54.675Z,98294.59
2019-04-03T18:51:22.572Z,98292.25
2019-04-03T18:53:53.520Z,98294.44
2019-04-03T18:56:26.571Z,98290.95
2019-04-03T18:58:57.518Z,98283.52
2019-04-03T19:01:32.352Z,98283.94
2019-04-03T19:04:06.963Z,98287.64
2019-04-03T19:06:41.006Z,98293.28
2019-04-03T19:09:13.413Z,98289.19
2019-04-03T19:11:45.835Z,98290.45
2019-04-03T19:14:27.159Z,98285.81
2019-04-03T19:16:55.250Z,98285.78
2019-04-03T19:19:25.850Z,98292.92
2019-04-03T19:21:56.703Z,98277.24
2019-04-03T19:24:29.674Z,98272.48
2019-04-03T19:27:02.206Z,98280.30
2019-04-03T19:29:35.824Z,98274.69
2019-04-03T19:32:11.826Z,98282.69
2019-04-03T19:34:42.517Z,98286.61
2019-04-03T19:37:14.653Z,98288.03
2019-04-03T19:39:45.714Z,98277.24
2019-04-03T19:42:16.346Z,98278.30
2019-04-03T19:44:47.216Z,98274.84
2019-04-03T19:47:20.758Z,98276.63
2019-04-03T19:49:51.918Z,98272.56
2019-04-03T19:52:23.965Z,98273.31
2019-04-03T19:54:55.016Z,98272.33
2019-04-03T19:57:27.467Z,98266.80
2019-04-03T20:00:01.027Z,98270.98
2019-04-03T20:02:33.220Z,98276.28
2019-04-03T20:05:03.909Z,98280.05
2019-04-03T20:07:35.215Z,98279.89
2019-04-03T20:10:08.664Z,98283.05
2019-04-03T20:12:41.985Z,98294.03
2019-04-03T20:15:17.173Z,98293.13
2019-04-03T20:17:48.856Z,98298.56
2019-04-03T20:20:19.998Z,98300.68
2019-04-03T20:22:53.003Z,98299.84
2019-04-03T20:25:24.327Z,98304.13
2019-04-03T20:27:57.089Z,98293.30
2019-04-03T20:30:28.014Z,98288.38
2019-04-03T20:33:01.262Z,98288.08
2019-04-03T20:35:32.049Z,98290.62
2019-04-03T20:38:03.044Z,98283.53
2019-04-03T20:40:34.516Z,98279.42
2019-04-03T20:43:07.102Z,98278.59
2019-04-03T20:45:38.026Z,98277.53
2019-04-03T20:48:11.036Z,98278.81
2019-04-03T20:50:44.084Z,98282.50
2019-04-03T20:53:17.098Z,98284.95
2019-04-03T20:55:48.007Z,98283.44
2019-04-03T20:58:19.050Z,98290.30
2019-04-03T21:01:05.671Z,98284.08
2019-04-03T21:03:23.072Z,98285.05
2019-04-03T21:05:54.029Z,98287.29
2019-04-03T21:08:26.708Z,98285.09
2019-04-03T21:10:58.079Z,98279.47
2019-04-03T21:13:29.181Z,98277.70
2019-04-03T21:16:02.201Z,98276.55
2019-04-03T21:18:33.281Z,98280.18
2019-04-03T21:21:05.459Z,98277.92
2019-04-03T21:23:37.634Z,98279.34
2019-04-03T21:26:08.153Z,98275.94
2019-04-03T21:28:40.964Z,98279.03
2019-04-03T21:31:12.150Z,98279.92
2019-04-03T21:33:45.394Z,98279.03
2019-04-03T21:36:16.273Z,98271.51
2019-04-03T21:38:47.315Z,98274.87
2019-04-03T21:41:20.778Z,98278.27
2019-04-03T21:43:55.434Z,98277.80
2019-04-03T21:46:27.274Z,98271.20
2019-04-03T21:48:58.243Z,98274.73
2019-04-03T21:51:28.998Z,98271.36
2019-04-03T21:53:59.393Z,98264.19
2019-04-03T21:56:32.693Z,98266.41
2019-04-03T21:59:07.032Z,98276.23
2019-04-03T22:01:38.305Z,98266.49
2019-04-03T22:04:10.675Z,98265.59
2019-04-03T22:06:42.657Z,98269.20
2019-04-03T22:09:14.439Z,98258.95
2019-04-03T22:11:46.442Z,98262.80
2019-04-03T22:14:17.415Z,98260.02
2019-04-03T22:16:50.881Z,98264.39
2019-04-03T22:19:22.515Z,98258.45
2019-04-03T22:21:53.528Z,98253.32
2019-04-03T22:24:24.435Z,98254.20
2019-04-03T22:26:56.441Z,98252.72
2019-04-03T22:29:28.402Z,98255.53
2019-04-03T22:31:59.645Z,98259.91
2019-04-03T22:34:32.534Z,98260.47
2019-04-03T22:37:05.558Z,98255.11
2019-04-03T22:39:39.135Z,98258.94
2019-04-03T22:42:14.716Z,98266.26
2019-04-03T22:44:47.590Z,98265.81
2019-04-03T22:47:19.637Z,98267.59
2019-04-03T22:49:50.451Z,98260.84
2019-04-03T22:52:22.629Z,98262.28
2019-04-03T22:54:54.621Z,98271.45
2019-04-03T22:57:25.553Z,98268.44
2019-04-03T22:59:58.629Z,98274.73
2019-04-03T23:02:31.880Z,98271.81
2019-04-03T23:05:05.864Z,98272.89
2019-04-03T23:07:38.664Z,98273.84
2019-04-03T23:10:09.637Z,98271.08
2019-04-03T23:12:40.668Z,98267.92
2019-04-03T23:15:13.547Z,98264.80
2019-04-03T23:17:46.806Z,98265.05
2019-04-03T23:20:20.067Z,98263.60
2019-04-03T23:22:51.784Z,98253.60
2019-04-03T23:25:22.913Z,98257.76
2019-04-03T23:27:55.749Z,98255.64
2019-04-03T23:30:28.712Z,98249.03
2019-04-03T23:33:01.691Z,98244.31
2019-04-03T23:35:34.753Z,98242.91
2019-04-03T23:38:09.478Z,98244.75
2019-04-03T23:40:40.826Z,98248.78
2019-04-03T23:43:13.879Z,98245.53
2019-04-03T23:45:46.708Z,98243.30
2019-04-03T23:48:18.485Z,98242.86
2019-04-03T23:50:52.388Z,98234.94
2019-04-03T23:53:22.861Z,98239.53
2019-04-03T23:55:53.903Z,98226.56
2019-04-03T23:58:25.868Z,98233.08
